F/V Moorea — FMIT — position and weather

sailwx.info

Track history (hours):
 
Tides and Currents Weather Stations Pressure Air Temp Water Temp Dewpoint Dewpoint Depression Visibility Wind Speed Wind Dir Waves Ship Positions

F/V Moorea

Last reported at 2016-Oct-01 00:32 UTC. Time now 2016-Oct-01 01:37 UTC.
Position N 47°16' W 002°35'.

Length 18 m.

Type: Fishing. MMSI: 228239900.

Date/timePositionNaut miles runAvg speedWind from/ knotsBaromVisibWave heightAir tempDewpointWater temp
2016-Oct-01 00:32N 47°16' W 002°35'21 3.0
2016-Sep-30 17:22N 46°57' W 002°49'7 1.0
2016-Sep-30 10:08N 46°52' W 002°41'5 3.1
2016-Sep-30 08:31N 46°49' W 002°36'3 0.6
2016-Sep-30 03:28N 46°47' W 002°32'3 3.1
2016-Sep-30 02:23N 46°49' W 002°36'14 1.3
2016-Sep-29 15:24N 47°01' W 002°48'2 2.6
2016-Sep-29 14:30N 47°02' W 002°44'3 2.8
2016-Sep-29 13:30N 47°03' W 002°41'16 1.2
2016-Sep-29 00:18N 47°18' W 002°31'18 6.4
2016-Sep-28 21:28N 47°01' W 002°41'7 0.1
2016-Sep-26 19:28N 46°54' W 002°40'5 0.4
2016-Sep-26 08:15N 46°57' W 002°35'22 3.8
2016-Sep-26 02:33N 47°19' W 002°33'2 1.9
2016-Sep-26 01:32N 47°18' W 002°31'0 0.1
2016-Sep-26 00:30N 47°18' W 002°31'18 2.1
2016-Sep-25 15:32N 47°01' W 002°41'9 0.6
2016-Sep-25 00:12N 46°53' W 002°38'4 2.4
2016-Sep-24 22:33N 46°50' W 002°33'3 2.5
2016-Sep-24 21:33N 46°48' W 002°31'0 0.2
2016-Sep-24 19:33N 46°48' W 002°31'3 2.6
2016-Sep-24 18:33N 46°50' W 002°33'10 2.4
2016-Sep-24 14:15N 46°56' W 002°45'5 2.6
2016-Sep-24 12:30N 46°59' W 002°50'5 2.8
2016-Sep-24 10:33N 47°03' W 002°55'3 2.7
2016-Sep-24 09:33N 47°06' W 002°57'22 3.6
2016-Sep-24 03:33N 47°18' W 002°31'0 0.0
2016-Sep-24 02:33N 47°18' W 002°31'0 0.0
2016-Sep-24 01:33N 47°18' W 002°31'2 2.0
2016-Sep-24 00:33N 47°18' W 002°34'17 3.4
2016-Sep-23 19:33N 47°02' W 002°41'5 2.2
2016-Sep-23 17:27N 46°58' W 002°46'5 2.7
2016-Sep-23 15:32N 46°58' W 002°53'5 2.7
2016-Sep-23 13:33N 47°03' W 002°56'7 1.1
2016-Sep-23 06:33N 46°57' W 002°48'4 1.6
2016-Sep-23 04:14N 46°60' W 002°44'1 2.1
2016-Sep-23 03:33N 47°01' W 002°43'0 0.2
2016-Sep-23 01:33N 47°01' W 002°44'2 2.2
2016-Sep-23 00:32N 47°00' W 002°40'3 2.9
2016-Sep-22 23:31N 46°59' W 002°37'5 1.6
2016-Sep-22 20:33N 47°03' W 002°41'14 1.7
2016-Sep-22 12:33N 47°03' W 003°01'14 1.7
2016-Sep-22 04:33N 47°02' W 002°41'3 2.8
2016-Sep-22 03:33N 46°59' W 002°39'1 0.4
2016-Sep-22 00:28N 46°59' W 002°38'2 2.3
2016-Sep-21 23:32N 46°60' W 002°40'2 2.4
2016-Sep-21 22:33N 47°01' W 002°43'11 1.9
2016-Sep-21 16:33N 46°59' W 002°59'14 2.1
2016-Sep-21 09:32N 46°58' W 002°38'1 0.4
2016-Sep-21 08:14N 46°58' W 002°37'2 0.8
2016-Sep-21 05:32N 46°59' W 002°34'1 0.4
2016-Sep-21 03:27N 46°58' W 002°34'3 3.2
2016-Sep-21 02:32N 46°58' W 002°38'  
Track history (hours):
 
Tides and Currents Weather Stations Pressure Air Temp Water Temp Dewpoint Dewpoint Depression Visibility Wind Speed Wind Dir Waves Ship Positions

F/V Moorea

Last reported at 2016-Oct-01 00:32 UTC. Time now 2016-Oct-01 01:37 UTC.
Position N 47°16' W 002°35'.

Length 18 m.

Type: Fishing. MMSI: 228239900.

Date/timePositionNaut miles runAvg speedWind from/ knotsBaromVisibWave heightAir tempDewpointWater temp
2016-Oct-01 00:32N 47°16' W 002°35'21 3.0
2016-Sep-30 17:22N 46°57' W 002°49'7 1.0
2016-Sep-30 10:08N 46°52' W 002°41'5 3.1
2016-Sep-30 08:31N 46°49' W 002°36'3 0.6
2016-Sep-30 03:28N 46°47' W 002°32'3 3.1
2016-Sep-30 02:23N 46°49' W 002°36'14 1.3
2016-Sep-29 15:24N 47°01' W 002°48'2 2.6
2016-Sep-29 14:30N 47°02' W 002°44'3 2.8
2016-Sep-29 13:30N 47°03' W 002°41'16 1.2
2016-Sep-29 00:18N 47°18' W 002°31'18 6.4
2016-Sep-28 21:28N 47°01' W 002°41'7 0.1
2016-Sep-26 19:28N 46°54' W 002°40'5 0.4
2016-Sep-26 08:15N 46°57' W 002°35'22 3.8
2016-Sep-26 02:33N 47°19' W 002°33'2 1.9
2016-Sep-26 01:32N 47°18' W 002°31'0 0.1
2016-Sep-26 00:30N 47°18' W 002°31'18 2.1
2016-Sep-25 15:32N 47°01' W 002°41'9 0.6
2016-Sep-25 00:12N 46°53' W 002°38'4 2.4
2016-Sep-24 22:33N 46°50' W 002°33'3 2.5
2016-Sep-24 21:33N 46°48' W 002°31'0 0.2
2016-Sep-24 19:33N 46°48' W 002°31'3 2.6
2016-Sep-24 18:33N 46°50' W 002°33'10 2.4
2016-Sep-24 14:15N 46°56' W 002°45'5 2.6
2016-Sep-24 12:30N 46°59' W 002°50'5 2.8
2016-Sep-24 10:33N 47°03' W 002°55'3 2.7
2016-Sep-24 09:33N 47°06' W 002°57'22 3.6
2016-Sep-24 03:33N 47°18' W 002°31'0 0.0
2016-Sep-24 02:33N 47°18' W 002°31'0 0.0
2016-Sep-24 01:33N 47°18' W 002°31'2 2.0
2016-Sep-24 00:33N 47°18' W 002°34'17 3.4
2016-Sep-23 19:33N 47°02' W 002°41'5 2.2
2016-Sep-23 17:27N 46°58' W 002°46'5 2.7
2016-Sep-23 15:32N 46°58' W 002°53'5 2.7
2016-Sep-23 13:33N 47°03' W 002°56'7 1.1
2016-Sep-23 06:33N 46°57' W 002°48'4 1.6
2016-Sep-23 04:14N 46°60' W 002°44'1 2.1
2016-Sep-23 03:33N 47°01' W 002°43'0 0.2
2016-Sep-23 01:33N 47°01' W 002°44'2 2.2
2016-Sep-23 00:32N 47°00' W 002°40'3 2.9
2016-Sep-22 23:31N 46°59' W 002°37'5 1.6
2016-Sep-22 20:33N 47°03' W 002°41'14 1.7
2016-Sep-22 12:33N 47°03' W 003°01'14 1.7
2016-Sep-22 04:33N 47°02' W 002°41'3 2.8
2016-Sep-22 03:33N 46°59' W 002°39'1 0.4
2016-Sep-22 00:28N 46°59' W 002°38'2 2.3
2016-Sep-21 23:32N 46°60' W 002°40'2 2.4
2016-Sep-21 22:33N 47°01' W 002°43'11 1.9
2016-Sep-21 16:33N 46°59' W 002°59'14 2.1
2016-Sep-21 09:32N 46°58' W 002°38'1 0.4
2016-Sep-21 08:14N 46°58' W 002°37'2 0.8
2016-Sep-21 05:32N 46°59' W 002°34'1 0.4
2016-Sep-21 03:27N 46°58' W 002°34'3 3.2
2016-Sep-21 02:32N 46°58' W 002°38'  

Dump ship's entire track history